Time;durP1;ratioP1;P1;durP2;ratioP2;P2;SDS_P1;SDS_P2;PMS_P1;PMS_P2;Temp;Humidity;BMP_temperature;BMP_pressure;BME280_temperature;BME280_humidity;BME280_pressure;Samples;Min_cycle;Max_cycle;Signal;HPM_P1;HPM_P2
2021/01/10 00:00:46;;;;;;;43.07;27.40;;;;;;;;;;2089797;28;20538;-63
2021/01/10 00:01:47;;;;;;;43.97;27.07;;;;;;;;;;2090337;28;20176;-59
2021/01/10 00:02:48;;;;;;;39.03;25.60;;;;;;;;;;2090140;28;20265;-65
2021/01/10 00:03:48;;;;;;;45.67;26.60;;;;;;;;;;2090612;28;20263;-61
2021/01/10 00:04:48;;;;;;;44.23;28.13;;;;;;;;;;2087853;28;20571;-65
2021/01/10 00:05:48;;;;;;;40.33;27.53;;;;;;;;;;2090146;28;20176;-60
2021/01/10 00:06:49;;;;;;;46.20;28.20;;;;;;;;;;2090822;28;20171;-64
2021/01/10 00:07:49;;;;;;;41.17;26.53;;;;;;;;;;2082062;28;20176;-60
2021/01/10 00:08:49;;;;;;;41.60;26.50;;;;;;;;;;2082676;28;20192;-65
2021/01/10 00:09:50;;;;;;;45.07;28.20;;;;;;;;;;2090973;28;20160;-60
2021/01/10 00:10:50;;;;;;;41.23;26.93;;;;;;;;;;2090031;28;20180;-59
2021/01/10 00:11:50;;;;;;;45.93;29.00;;;;;;;;;;2091068;28;20620;-61
2021/01/10 00:12:50;;;;;;;46.67;29.30;;;;;;;;;;2089583;28;20199;-62
2021/01/10 00:13:51;;;;;;;44.93;28.90;;;;;;;;;;2089929;28;20214;-66
2021/01/10 00:14:51;;;;;;;47.93;29.33;;;;;;;;;;2081465;28;20216;-64
2021/01/10 00:15:52;;;;;;;46.03;28.57;;;;;;;;;;2089313;28;20213;-65
2021/01/10 00:16:52;;;;;;;49.50;30.07;;;;;;;;;;2092446;28;20238;-66
2021/01/10 00:17:53;;;;;;;55.57;30.40;;;;;;;;;;2090484;28;20172;-65
2021/01/10 00:18:53;;;;;;;49.13;30.00;;;;;;;;;;2082763;28;20181;-62
2021/01/10 00:19:53;;;;;;;50.03;31.43;;;;;;;;;;2083462;28;20717;-63
2021/01/10 00:20:53;;;;;;;50.10;29.57;;;;;;;;;;2091707;28;20179;-64
2021/01/10 00:21:54;;;;;;;47.57;29.23;;;;;;;;;;2091640;28;20182;-62
2021/01/10 00:22:54;;;;;;;50.13;29.73;;;;;;;;;;2091260;28;20206;-60
2021/01/10 00:23:55;;;;;;;46.57;28.57;;;;;;;;;;2090356;28;20183;-62
2021/01/10 00:24:55;;;;;;;52.43;30.07;;;;;;;;;;2089980;28;20199;-64
2021/01/10 00:25:55;;;;;;;48.87;29.03;;;;;;;;;;2081453;28;20813;-63
2021/01/10 00:26:56;;;;;;;48.90;29.83;;;;;;;;;;2082046;28;20184;-55
2021/01/10 00:27:56;;;;;;;53.73;31.20;;;;;;;;;;2089422;28;20175;-62
2021/01/10 00:28:56;;;;;;;51.03;29.90;;;;;;;;;;2089900;28;20225;-63
2021/01/10 00:29:56;;;;;;;49.10;29.73;;;;;;;;;;2081259;28;20176;-60
2021/01/10 00:30:57;;;;;;;51.03;30.13;;;;;;;;;;2080844;28;20695;-65
2021/01/10 00:31:57;;;;;;;55.03;31.33;;;;;;;;;;2089327;28;20180;-63
2021/01/10 00:32:57;;;;;;;52.33;30.50;;;;;;;;;;2089760;28;20179;-64
2021/01/10 00:33:58;;;;;;;51.20;31.00;;;;;;;;;;2090343;28;20232;-57
2021/01/10 00:34:58;;;;;;;48.77;29.03;;;;;;;;;;2089294;28;20186;-60
2021/01/10 00:35:58;;;;;;;52.80;29.73;;;;;;;;;;2090276;28;20183;-58
2021/01/10 00:36:58;;;;;;;50.30;30.87;;;;;;;;;;2081486;28;20184;-60
2021/01/10 00:37:59;;;;;;;53.33;32.10;;;;;;;;;;2089416;28;20176;-59
2021/01/10 00:38:59;;;;;;;54.83;30.97;;;;;;;;;;2090583;28;20167;-61
2021/01/10 00:39:59;;;;;;;50.93;29.63;;;;;;;;;;2090239;28;20175;-63
2021/01/10 00:40:59;;;;;;;52.23;29.43;;;;;;;;;;2089776;28;20176;-63
2021/01/10 00:42:03;;;;;;;51.97;30.90;;;;;;;;;;2090183;28;20551;-60
2021/01/10 00:43:04;;;;;;;46.70;30.17;;;;;;;;;;2090094;28;20172;-59
2021/01/10 00:44:05;;;;;;;50.60;30.40;;;;;;;;;;2090742;28;20674;-60
2021/01/10 00:45:06;;;;;;;55.47;31.13;;;;;;;;;;2088390;28;20175;-63
2021/01/10 00:46:06;;;;;;;54.30;30.63;;;;;;;;;;2089906;28;20213;-60
2021/01/10 00:47:06;;;;;;;56.87;32.10;;;;;;;;;;2089427;28;20607;-61
2021/01/10 00:48:07;;;;;;;52.53;31.40;;;;;;;;;;2081632;28;20687;-60
2021/01/10 00:49:11;;;;;;;49.97;31.63;;;;;;;;;;2074597;28;20607;-62
2021/01/10 00:50:11;;;;;;;49.07;30.73;;;;;;;;;;2079793;28;20173;-60
2021/01/10 00:51:12;;;;;;;52.13;31.37;;;;;;;;;;2078229;28;20258;-64
2021/01/10 00:52:13;;;;;;;55.50;33.57;;;;;;;;;;2079479;28;20168;-59
2021/01/10 00:53:14;;;;;;;53.67;33.03;;;;;;;;;;2089113;28;20199;-64
2021/01/10 00:54:16;;;;;;;57.10;32.60;;;;;;;;;;2079193;28;20236;-61
2021/01/10 00:55:16;;;;;;;49.17;30.33;;;;;;;;;;2084778;23;20260;-59
2021/01/10 00:56:17;;;;;;;51.40;31.60;;;;;;;;;;2078391;28;20184;-57
2021/01/10 00:57:17;;;;;;;55.73;32.57;;;;;;;;;;2076157;28;20704;-57
2021/01/10 00:58:18;;;;;;;50.37;30.30;;;;;;;;;;2070383;28;20173;-58
2021/01/10 00:59:18;;;;;;;49.23;30.97;;;;;;;;;;2080727;28;20251;-59
2021/01/10 01:00:21;;;;;;;48.00;30.27;;;;;;;;;;2072888;28;20260;-58
2021/01/10 01:01:22;;;;;;;51.03;31.30;;;;;;;;;;2080014;28;20572;-59
2021/01/10 01:02:22;;;;;;;53.47;32.93;;;;;;;;;;2080331;28;20248;-58
2021/01/10 01:03:23;;;;;;;51.97;30.67;;;;;;;;;;2079715;28;20170;-58
2021/01/10 01:04:24;;;;;;;49.90;30.07;;;;;;;;;;2080943;28;20207;-59
2021/01/10 01:05:25;;;;;;;45.33;29.00;;;;;;;;;;2067588;28;20252;-59
2021/01/10 01:06:28;;;;;;;41.17;28.17;;;;;;;;;;2067845;28;20189;-59
2021/01/10 01:07:29;;;;;;;42.23;26.77;;;;;;;;;;2068464;28;20173;-59
2021/01/10 01:08:29;;;;;;;40.47;26.80;;;;;;;;;;2067261;28;20188;-59
2021/01/10 01:09:30;;;;;;;40.13;27.00;;;;;;;;;;2075812;28;20176;-59
2021/01/10 01:10:30;;;;;;;43.10;27.20;;;;;;;;;;2077377;28;20199;-59
2021/01/10 01:11:31;;;;;;;38.37;27.33;;;;;;;;;;2072974;28;20209;-59
2021/01/10 01:12:32;;;;;;;44.20;28.30;;;;;;;;;;2077597;28;20616;-59
2021/01/10 01:13:33;;;;;;;42.17;26.27;;;;;;;;;;2071438;28;20180;-57
2021/01/10 01:14:33;;;;;;;45.03;28.77;;;;;;;;;;2077459;28;20200;-59
2021/01/10 01:15:34;;;;;;;40.90;27.60;;;;;;;;;;2075200;28;20173;-60
2021/01/10 01:16:35;;;;;;;39.53;26.53;;;;;;;;;;2075586;28;20568;-58
2021/01/10 01:17:36;;;;;;;38.63;25.93;;;;;;;;;;2074090;28;20265;-59
2021/01/10 01:18:37;;;;;;;40.20;26.93;;;;;;;;;;2076747;28;20169;-59
2021/01/10 01:19:37;;;;;;;37.33;24.50;;;;;;;;;;2075515;28;20168;-59
2021/01/10 01:20:37;;;;;;;38.60;27.30;;;;;;;;;;2075944;28;20226;-58
2021/01/10 01:21:38;;;;;;;39.67;27.40;;;;;;;;;;2077842;28;20180;-59
2021/01/10 01:22:38;;;;;;;39.37;26.23;;;;;;;;;;2073602;28;20244;-65
2021/01/10 01:23:38;;;;;;;43.23;28.53;;;;;;;;;;2075992;28;20168;-56
2021/01/10 01:24:38;;;;;;;42.37;27.13;;;;;;;;;;2075093;28;20681;-57
2021/01/10 01:25:39;;;;;;;43.60;28.87;;;;;;;;;;2071360;28;20603;-58
2021/01/10 01:26:39;;;;;;;41.73;27.20;;;;;;;;;;2077001;28;20641;-55
2021/01/10 01:27:39;;;;;;;40.97;26.87;;;;;;;;;;2077197;28;20187;-59
2021/01/10 01:28:41;;;;;;;39.70;26.93;;;;;;;;;;2075527;28;20203;-57
2021/01/10 01:29:42;;;;;;;42.20;26.67;;;;;;;;;;2074980;28;20258;-57
2021/01/10 01:30:42;;;;;;;40.10;26.10;;;;;;;;;;2075797;28;20536;-59
2021/01/10 01:31:42;;;;;;;40.30;26.00;;;;;;;;;;2076850;28;20565;-59
2021/01/10 01:32:42;;;;;;;45.37;28.97;;;;;;;;;;2076056;28;20188;-57
2021/01/10 01:33:43;;;;;;;38.20;26.73;;;;;;;;;;2073649;28;20177;-57
2021/01/10 01:34:43;;;;;;;39.70;26.47;;;;;;;;;;2075485;28;20188;-60
2021/01/10 01:35:44;;;;;;;39.43;27.40;;;;;;;;;;2074070;28;20181;-60
2021/01/10 01:36:44;;;;;;;41.80;28.23;;;;;;;;;;2073689;28;21083;-60
2021/01/10 01:37:44;;;;;;;41.07;27.87;;;;;;;;;;2076454;28;20169;-60
2021/01/10 01:38:45;;;;;;;41.60;27.43;;;;;;;;;;2076754;28;20188;-59
2021/01/10 01:39:45;;;;;;;40.53;28.17;;;;;;;;;;2075394;28;20176;-60
2021/01/10 01:40:45;;;;;;;42.57;28.97;;;;;;;;;;2073543;28;20215;-60
2021/01/10 01:41:45;;;;;;;39.63;28.67;;;;;;;;;;2074890;28;20172;-59
2021/01/10 01:42:46;;;;;;;39.77;26.97;;;;;;;;;;2075664;28;20215;-60
2021/01/10 01:43:46;;;;;;;41.47;27.53;;;;;;;;;;2074411;28;20188;-61
2021/01/10 01:44:47;;;;;;;41.60;28.60;;;;;;;;;;2074437;28;20215;-64
2021/01/10 01:45:47;;;;;;;39.37;27.87;;;;;;;;;;2072871;28;20176;-58
2021/01/10 01:46:47;;;;;;;38.77;28.10;;;;;;;;;;2074049;28;20645;-58
2021/01/10 01:47:47;;;;;;;42.83;27.07;;;;;;;;;;2075323;28;20238;-60
2021/01/10 01:48:48;;;;;;;39.03;26.40;;;;;;;;;;2073058;28;20762;-59
2021/01/10 01:49:48;;;;;;;36.17;27.20;;;;;;;;;;2077332;28;20212;-59
2021/01/10 01:50:49;;;;;;;41.53;27.47;;;;;;;;;;2072855;28;20200;-60
2021/01/10 01:51:50;;;;;;;40.93;27.13;;;;;;;;;;2077136;28;20702;-59
2021/01/10 01:52:50;;;;;;;43.53;29.00;;;;;;;;;;2076264;28;20214;-59
2021/01/10 01:53:50;;;;;;;41.90;29.00;;;;;;;;;;2077034;28;20184;-60
2021/01/10 01:54:51;;;;;;;40.20;28.30;;;;;;;;;;2073775;28;20193;-60
2021/01/10 01:55:54;;;;;;;42.23;27.83;;;;;;;;;;2072883;28;20189;-59
2021/01/10 01:56:54;;;;;;;40.43;28.37;;;;;;;;;;2075278;28;20176;-60
2021/01/10 01:57:55;;;;;;;40.13;28.17;;;;;;;;;;2074660;28;20452;-59
2021/01/10 01:59:05;;;;;;;39.70;28.47;;;;;;;;;;2075288;28;20187;-58
2021/01/10 02:00:06;;;;;;;43.33;27.93;;;;;;;;;;2075710;28;20169;-59
2021/01/10 02:01:13;;;;;;;36.77;27.80;;;;;;;;;;2075202;28;20171;-60
2021/01/10 02:02:14;;;;;;;40.40;27.07;;;;;;;;;;2076758;28;20244;-59
2021/01/10 02:03:25;;;;;;;38.83;28.50;;;;;;;;;;2074953;28;20185;-60
2021/01/10 02:04:30;;;;;;;41.20;27.13;;;;;;;;;;2070917;28;20193;-60
2021/01/10 02:05:32;;;;;;;42.33;28.03;;;;;;;;;;2073069;28;20442;-59
2021/01/10 02:06:38;;;;;;;43.20;29.27;;;;;;;;;;2072415;28;20413;-59
2021/01/10 02:07:41;;;;;;;44.37;30.90;;;;;;;;;;2075453;28;20165;-60
2021/01/10 02:08:41;;;;;;;43.27;30.70;;;;;;;;;;2074940;28;20429;-58
2021/01/10 02:09:47;;;;;;;44.23;29.27;;;;;;;;;;2074770;28;20179;-63
2021/01/10 02:10:47;;;;;;;44.37;30.47;;;;;;;;;;2073277;28;20212;-58
2021/01/10 02:11:49;;;;;;;40.27;28.33;;;;;;;;;;2071836;28;20180;-60
2021/01/10 02:12:50;;;;;;;44.20;29.93;;;;;;;;;;2075589;28;20169;-59
2021/01/10 02:13:51;;;;;;;50.27;31.30;;;;;;;;;;2076233;28;20402;-60
2021/01/10 02:14:56;;;;;;;47.27;30.40;;;;;;;;;;2075017;28;20546;-57
2021/01/10 02:15:57;;;;;;;48.63;32.30;;;;;;;;;;2070940;28;20192;-60
2021/01/10 02:16:57;;;;;;;45.63;31.37;;;;;;;;;;2074723;28;20180;-60
2021/01/10 02:17:57;;;;;;;47.03;32.37;;;;;;;;;;2076160;28;20180;-59
2021/01/10 02:18:58;;;;;;;45.37;31.40;;;;;;;;;;2076280;28;20660;-60
2021/01/10 02:20:04;;;;;;;50.53;33.03;;;;;;;;;;2074421;28;20208;-59
2021/01/10 02:21:06;;;;;;;53.67;34.23;;;;;;;;;;2074679;28;20197;-57
2021/01/10 02:22:09;;;;;;;46.27;31.40;;;;;;;;;;2075493;28;20645;-60
2021/01/10 02:23:24;;;;;;;48.27;32.70;;;;;;;;;;2075172;28;20265;-58
2021/01/10 02:24:24;;;;;;;46.90;32.10;;;;;;;;;;2075976;28;20210;-60
2021/01/10 02:25:25;;;;;;;50.33;33.90;;;;;;;;;;2073260;28;20261;-59
2021/01/10 02:26:25;;;;;;;48.53;32.53;;;;;;;;;;2075163;28;20169;-60
2021/01/10 02:27:25;;;;;;;50.93;33.70;;;;;;;;;;2071781;28;20754;-57
2021/01/10 02:28:27;;;;;;;51.93;34.00;;;;;;;;;;2076017;28;20160;-58
2021/01/10 02:29:28;;;;;;;49.73;33.83;;;;;;;;;;2074085;28;20603;-60
2021/01/10 02:30:29;;;;;;;50.07;31.60;;;;;;;;;;2076429;28;20227;-60
2021/01/10 02:31:31;;;;;;;48.90;33.17;;;;;;;;;;2079615;28;20172;-58
2021/01/10 02:32:32;;;;;;;48.37;32.27;;;;;;;;;;2075869;28;20176;-58
2021/01/10 02:33:45;;;;;;;51.43;32.13;;;;;;;;;;2075581;28;20574;-57
2021/01/10 02:34:46;;;;;;;48.70;32.57;;;;;;;;;;2076435;28;20380;-57
2021/01/10 02:35:48;;;;;;;49.27;32.77;;;;;;;;;;2073415;28;20212;-62
2021/01/10 02:37:07;;;;;;;52.60;33.30;;;;;;;;;;2068117;28;20185;-60
2021/01/10 02:38:26;;;;;;;50.73;33.93;;;;;;;;;;2075558;28;20177;-60
2021/01/10 02:39:29;;;;;;;48.80;32.23;;;;;;;;;;2073284;28;20185;-59
2021/01/10 02:40:30;;;;;;;49.53;32.83;;;;;;;;;;2077379;28;20172;-57
2021/01/10 02:41:36;;;;;;;51.77;33.00;;;;;;;;;;2076289;28;20712;-59
2021/01/10 02:42:59;;;;;;;46.97;32.53;;;;;;;;;;2072248;28;20267;-56
2021/01/10 02:44:18;;;;;;;48.03;29.63;;;;;;;;;;2077409;28;20536;-53
2021/01/10 02:45:19;;;;;;;44.23;31.57;;;;;;;;;;2074397;28;20200;-59
2021/01/10 02:46:20;;;;;;;40.37;25.23;;;;;;;;;;2079321;28;20183;-54
2021/01/10 02:47:21;;;;;;;39.73;26.07;;;;;;;;;;2073849;28;20181;-56
2021/01/10 02:48:21;;;;;;;40.63;25.17;;;;;;;;;;2076283;28;20188;-59
2021/01/10 02:49:22;;;;;;;41.33;25.10;;;;;;;;;;2071743;28;20173;-59
2021/01/10 02:50:22;;;;;;;37.00;24.13;;;;;;;;;;2077180;28;20577;-59
2021/01/10 02:51:23;;;;;;;39.43;25.03;;;;;;;;;;2075915;28;20173;-60
2021/01/10 02:52:23;;;;;;;35.67;24.70;;;;;;;;;;2078539;28;20524;-56
2021/01/10 02:53:23;;;;;;;35.63;24.03;;;;;;;;;;2076742;28;20173;-60
2021/01/10 02:54:23;;;;;;;35.10;24.93;;;;;;;;;;2076537;28;20192;-60
2021/01/10 02:55:23;;;;;;;34.63;24.50;;;;;;;;;;2073296;28;20692;-57
2021/01/10 02:56:24;;;;;;;34.53;23.87;;;;;;;;;;2075729;28;20184;-59
2021/01/10 02:57:28;;;;;;;38.10;23.70;;;;;;;;;;2074182;28;20176;-58
2021/01/10 02:58:28;;;;;;;32.50;24.43;;;;;;;;;;2076657;28;20676;-59
2021/01/10 02:59:30;;;;;;;38.33;25.63;;;;;;;;;;2079089;28;20195;-60
2021/01/10 03:00:31;;;;;;;34.67;23.53;;;;;;;;;;2074784;28;20268;-60
2021/01/10 03:01:32;;;;;;;37.10;25.47;;;;;;;;;;2077067;28;20234;-57
2021/01/10 03:02:34;;;;;;;37.67;23.97;;;;;;;;;;2073318;28;20270;-59
2021/01/10 03:03:35;;;;;;;37.00;25.17;;;;;;;;;;2077220;28;20176;-60
2021/01/10 03:04:35;;;;;;;37.10;25.60;;;;;;;;;;2074859;28;20199;-59
2021/01/10 03:05:36;;;;;;;37.13;26.30;;;;;;;;;;2077642;28;20179;-61
2021/01/10 03:06:36;;;;;;;37.13;25.70;;;;;;;;;;2075972;28;20180;-59
2021/01/10 03:07:37;;;;;;;39.13;27.10;;;;;;;;;;2075616;28;20269;-57
2021/01/10 03:08:37;;;;;;;38.73;27.47;;;;;;;;;;2074770;28;20180;-56
2021/01/10 03:09:38;;;;;;;41.23;26.40;;;;;;;;;;2078406;28;20228;-59
2021/01/10 03:10:38;;;;;;;42.07;27.93;;;;;;;;;;2073398;28;20185;-57
2021/01/10 03:11:41;;;;;;;41.50;28.43;;;;;;;;;;2068220;28;20169;-53
2021/01/10 03:12:41;;;;;;;48.23;29.97;;;;;;;;;;2076948;28;20601;-60
2021/01/10 03:13:42;;;;;;;42.60;29.57;;;;;;;;;;2076129;28;20181;-57
2021/01/10 03:14:45;;;;;;;43.43;29.90;;;;;;;;;;2076322;28;20215;-59
2021/01/10 03:15:46;;;;;;;44.70;28.33;;;;;;;;;;2073115;28;20182;-54
2021/01/10 03:16:47;;;;;;;42.27;26.60;;;;;;;;;;2076467;28;20271;-57
2021/01/10 03:17:49;;;;;;;35.60;27.10;;;;;;;;;;2073489;28;20568;-57
2021/01/10 03:18:49;;;;;;;38.87;26.30;;;;;;;;;;2077225;28;20200;-59
2021/01/10 03:19:49;;;;;;;36.53;25.03;;;;;;;;;;2076820;28;20184;-58
2021/01/10 03:20:50;;;;;;;37.17;26.37;;;;;;;;;;2077292;28;20195;-56
2021/01/10 03:21:50;;;;;;;36.53;25.50;;;;;;;;;;2079153;28;20272;-59
2021/01/10 03:22:50;;;;;;;39.93;27.37;;;;;;;;;;2076773;28;20180;-58
2021/01/10 03:23:50;;;;;;;38.80;26.27;;;;;;;;;;2075899;28;20674;-54
2021/01/10 03:24:51;;;;;;;40.63;25.77;;;;;;;;;;2078255;28;20205;-59
2021/01/10 03:25:51;;;;;;;34.70;25.50;;;;;;;;;;2078314;28;20185;-56
2021/01/10 03:26:51;;;;;;;37.03;23.13;;;;;;;;;;2078029;28;20259;-57
2021/01/10 03:27:51;;;;;;;30.77;23.17;;;;;;;;;;2073524;28;20177;-57
2021/01/10 03:28:52;;;;;;;32.13;22.87;;;;;;;;;;2078101;28;20183;-60
2021/01/10 03:29:53;;;;;;;32.97;23.67;;;;;;;;;;2076509;28;20202;-59
2021/01/10 03:30:53;;;;;;;34.17;23.67;;;;;;;;;;2074320;28;20584;-57
2021/01/10 03:31:53;;;;;;;30.10;21.57;;;;;;;;;;2078288;28;20168;-59
2021/01/10 03:32:53;;;;;;;34.00;24.70;;;;;;;;;;2076903;28;20724;-58
2021/01/10 03:33:54;;;;;;;37.47;24.60;;;;;;;;;;2076091;28;20710;-59
2021/01/10 03:34:54;;;;;;;35.47;23.97;;;;;;;;;;2076694;28;20197;-59
2021/01/10 03:35:54;;;;;;;37.90;24.03;;;;;;;;;;2076399;28;20315;-60
2021/01/10 03:36:54;;;;;;;34.33;24.40;;;;;;;;;;2075647;28;20664;-60
2021/01/10 03:37:55;;;;;;;34.13;24.67;;;;;;;;;;2073832;28;20173;-59
2021/01/10 03:38:55;;;;;;;39.13;24.87;;;;;;;;;;2076436;28;20246;-58
2021/01/10 03:39:55;;;;;;;31.37;23.33;;;;;;;;;;2075618;28;20242;-59
2021/01/10 03:40:55;;;;;;;35.37;23.10;;;;;;;;;;2076049;28;20173;-59
2021/01/10 03:41:56;;;;;;;33.50;24.00;;;;;;;;;;2077258;28;20263;-58
2021/01/10 03:42:56;;;;;;;31.40;23.17;;;;;;;;;;2075211;28;20266;-56
2021/01/10 03:43:57;;;;;;;35.00;21.80;;;;;;;;;;2078466;28;20246;-59
2021/01/10 03:44:57;;;;;;;32.40;21.63;;;;;;;;;;2073278;28;20228;-58
2021/01/10 03:45:57;;;;;;;33.43;22.60;;;;;;;;;;2075090;28;20632;-56
2021/01/10 03:46:58;;;;;;;33.80;23.13;;;;;;;;;;2077669;28;20176;-57
2021/01/10 03:47:58;;;;;;;31.00;22.60;;;;;;;;;;2077847;28;20184;-56
2021/01/10 03:48:58;;;;;;;30.73;22.13;;;;;;;;;;2077647;28;20208;-58
2021/01/10 03:49:58;;;;;;;32.23;22.57;;;;;;;;;;2077939;28;20629;-58
2021/01/10 03:50:59;;;;;;;30.40;22.50;;;;;;;;;;2075010;28;20217;-58
2021/01/10 03:51:59;;;;;;;34.43;22.83;;;;;;;;;;2075270;28;20222;-59
2021/01/10 03:53:00;;;;;;;33.27;22.77;;;;;;;;;;2077267;28;20172;-57
2021/01/10 03:54:00;;;;;;;32.43;23.40;;;;;;;;;;2076573;28;20246;-56
2021/01/10 03:55:01;;;;;;;36.27;23.33;;;;;;;;;;2074914;28;20889;-55
2021/01/10 03:56:01;;;;;;;31.27;23.40;;;;;;;;;;2074460;28;20279;-57
2021/01/10 03:57:02;;;;;;;31.40;22.07;;;;;;;;;;2076906;28;20196;-59
2021/01/10 03:58:02;;;;;;;34.23;23.10;;;;;;;;;;2076053;28;20337;-59
2021/01/10 03:59:02;;;;;;;35.60;23.93;;;;;;;;;;2077617;28;20192;-59
2021/01/10 04:00:06;;;;;;;37.07;22.37;;;;;;;;;;2073721;28;20172;-58
2021/01/10 04:01:06;;;;;;;29.43;20.70;;;;;;;;;;2076233;28;20255;-58
2021/01/10 04:02:07;;;;;;;32.07;22.03;;;;;;;;;;2077748;28;20169;-59
2021/01/10 04:03:07;;;;;;;30.30;21.63;;;;;;;;;;2076014;28;20191;-57
2021/01/10 04:04:07;;;;;;;33.60;23.23;;;;;;;;;;2077895;28;20185;-56
2021/01/10 04:05:07;;;;;;;34.70;22.30;;;;;;;;;;2075432;28;20193;-57
2021/01/10 04:06:08;;;;;;;34.63;23.33;;;;;;;;;;2073693;28;20239;-58
2021/01/10 04:07:08;;;;;;;33.93;24.00;;;;;;;;;;2075954;28;20235;-57
2021/01/10 04:08:08;;;;;;;34.90;23.10;;;;;;;;;;2076002;28;20176;-56
2021/01/10 04:09:08;;;;;;;38.70;24.67;;;;;;;;;;2076585;28;20272;-59
2021/01/10 04:10:09;;;;;;;35.77;24.00;;;;;;;;;;2077298;28;20232;-53
2021/01/10 04:11:09;;;;;;;37.87;24.17;;;;;;;;;;2074104;28;20645;-55
2021/01/10 04:12:09;;;;;;;38.33;25.27;;;;;;;;;;2066936;28;20174;-53
2021/01/10 04:13:09;;;;;;;34.40;24.00;;;;;;;;;;2075233;28;20283;-52
2021/01/10 04:14:10;;;;;;;36.10;24.73;;;;;;;;;;2075133;28;20197;-53
2021/01/10 04:15:10;;;;;;;34.80;24.60;;;;;;;;;;2074125;28;20199;-51
2021/01/10 04:16:11;;;;;;;40.70;25.37;;;;;;;;;;2074488;28;20192;-55
2021/01/10 04:17:11;;;;;;;41.07;25.17;;;;;;;;;;2076092;28;20276;-50
2021/01/10 04:18:11;;;;;;;35.60;23.93;;;;;;;;;;2071422;28;20192;-54
2021/01/10 04:19:12;;;;;;;35.30;24.70;;;;;;;;;;2077748;28;20239;-53
2021/01/10 04:20:12;;;;;;;35.43;23.73;;;;;;;;;;2075767;28;20165;-51
2021/01/10 04:21:12;;;;;;;35.00;23.73;;;;;;;;;;2075752;28;20252;-53
2021/01/10 04:22:12;;;;;;;34.87;23.43;;;;;;;;;;2071693;28;20594;-53
2021/01/10 04:23:13;;;;;;;35.30;25.13;;;;;;;;;;2075168;28;20177;-50
2021/01/10 04:24:13;;;;;;;34.30;23.97;;;;;;;;;;2075347;28;20304;-54
2021/01/10 04:25:13;;;;;;;36.60;24.00;;;;;;;;;;2074820;28;20236;-53
2021/01/10 04:26:14;;;;;;;36.93;24.43;;;;;;;;;;2073864;28;20200;-51
2021/01/10 04:27:14;;;;;;;37.13;24.37;;;;;;;;;;2073245;28;20196;-52
2021/01/10 04:28:15;;;;;;;35.27;23.90;;;;;;;;;;2074876;28;20164;-54
2021/01/10 04:29:18;;;;;;;36.93;24.83;;;;;;;;;;2074813;28;20212;-55
2021/01/10 04:30:19;;;;;;;37.20;23.47;;;;;;;;;;2074942;28;20175;-59
2021/01/10 04:31:19;;;;;;;38.37;24.40;;;;;;;;;;2075966;28;20216;-59
2021/01/10 04:32:20;;;;;;;32.63;22.37;;;;;;;;;;2068040;28;20208;-53
2021/01/10 04:33:20;;;;;;;33.53;23.40;;;;;;;;;;2075187;28;20185;-53
2021/01/10 04:34:20;;;;;;;36.60;23.37;;;;;;;;;;2076090;28;20250;-56
2021/01/10 04:35:21;;;;;;;34.33;23.43;;;;;;;;;;2075934;28;20696;-53
2021/01/10 04:36:21;;;;;;;38.47;24.83;;;;;;;;;;2075145;28;20180;-54
2021/01/10 04:37:21;;;;;;;31.93;23.47;;;;;;;;;;2070412;28;20198;-53
2021/01/10 04:38:21;;;;;;;32.73;23.80;;;;;;;;;;2075132;28;20176;-52
2021/01/10 04:39:22;;;;;;;41.43;25.37;;;;;;;;;;2073399;28;20180;-51
2021/01/10 04:40:22;;;;;;;35.00;24.10;;;;;;;;;;2072624;28;20809;-52
2021/01/10 04:41:25;;;;;;;38.03;25.97;;;;;;;;;;2078358;28;20188;-56
2021/01/10 04:42:26;;;;;;;32.27;23.33;;;;;;;;;;2073941;28;20195;-54
2021/01/10 04:43:26;;;;;;;29.77;20.63;;;;;;;;;;2076972;28;20616;-54
2021/01/10 04:44:27;;;;;;;27.17;20.53;;;;;;;;;;2076128;28;20229;-51
2021/01/10 04:45:27;;;;;;;29.87;20.87;;;;;;;;;;2071779;28;20196;-55
2021/01/10 04:46:28;;;;;;;30.57;20.00;;;;;;;;;;2073651;28;20185;-54
2021/01/10 04:47:29;;;;;;;27.97;18.33;;;;;;;;;;2075069;28;20182;-54
2021/01/10 04:48:29;;;;;;;27.03;16.30;;;;;;;;;;2075829;28;20176;-56
2021/01/10 04:49:30;;;;;;;28.13;18.27;;;;;;;;;;2073744;28;20847;-52
2021/01/10 04:50:33;;;;;;;24.37;17.67;;;;;;;;;;2076551;28;20203;-54
2021/01/10 04:51:36;;;;;;;28.93;17.77;;;;;;;;;;2074429;28;20176;-54
2021/01/10 04:52:37;;;;;;;24.53;16.87;;;;;;;;;;2075235;28;20180;-52
2021/01/10 04:53:37;;;;;;;26.43;17.50;;;;;;;;;;2076216;28;20193;-57
2021/01/10 04:54:40;;;;;;;24.63;17.57;;;;;;;;;;2073981;28;20184;-53
2021/01/10 04:55:42;;;;;;;25.40;18.03;;;;;;;;;;2077601;28;20184;-52
2021/01/10 04:56:43;;;;;;;28.63;18.00;;;;;;;;;;2073286;28;20211;-56
2021/01/10 04:57:44;;;;;;;25.73;17.47;;;;;;;;;;2075688;28;20173;-50
2021/01/10 04:58:50;;;;;;;25.60;18.03;;;;;;;;;;2077249;28;20183;-55
2021/01/10 04:59:51;;;;;;;24.50;16.70;;;;;;;;;;2075872;28;20233;-53
2021/01/10 05:00:51;;;;;;;22.07;14.67;;;;;;;;;;2077049;28;20429;-55
2021/01/10 05:01:52;;;;;;;23.70;15.67;;;;;;;;;;2076100;28;20169;-56
2021/01/10 05:02:54;;;;;;;23.90;16.13;;;;;;;;;;2074364;28;20196;-53
2021/01/10 05:03:55;;;;;;;20.53;16.40;;;;;;;;;;2073285;28;20176;-57
2021/01/10 05:04:55;;;;;;;20.37;16.23;;;;;;;;;;2074951;28;20212;-57
2021/01/10 05:05:56;;;;;;;28.37;17.37;;;;;;;;;;2074269;28;20578;-56
2021/01/10 05:06:58;;;;;;;27.23;18.77;;;;;;;;;;2072590;28;20552;-57
2021/01/10 05:07:59;;;;;;;25.13;16.37;;;;;;;;;;2075923;28;20256;-55
2021/01/10 05:08:59;;;;;;;23.57;17.10;;;;;;;;;;2075280;28;20176;-54
2021/01/10 05:10:00;;;;;;;21.70;16.30;;;;;;;;;;2075203;28;20840;-57
2021/01/10 05:11:00;;;;;;;21.17;15.73;;;;;;;;;;2072839;28;20234;-56
2021/01/10 05:12:00;;;;;;;20.10;15.37;;;;;;;;;;2073342;28;21427;-54
2021/01/10 05:13:01;;;;;;;19.33;16.00;;;;;;;;;;2075196;28;20268;-55
2021/01/10 05:14:02;;;;;;;23.33;15.77;;;;;;;;;;2074959;28;20173;-55
2021/01/10 05:15:02;;;;;;;21.63;15.93;;;;;;;;;;2072652;28;20268;-55
2021/01/10 05:16:04;;;;;;;17.43;14.57;;;;;;;;;;2071424;28;20798;-53
2021/01/10 05:17:05;;;;;;;30.87;16.53;;;;;;;;;;2074400;28;20219;-55
2021/01/10 05:18:05;;;;;;;25.43;16.47;;;;;;;;;;2073855;28;20173;-55
2021/01/10 05:19:05;;;;;;;27.23;16.93;;;;;;;;;;2074666;28;20173;-56
2021/01/10 05:20:06;;;;;;;21.90;15.33;;;;;;;;;;2074837;28;20613;-55
2021/01/10 05:21:09;;;;;;;21.70;15.43;;;;;;;;;;2072678;28;20192;-57
2021/01/10 05:22:09;;;;;;;19.73;14.87;;;;;;;;;;2075393;28;20169;-55
2021/01/10 05:23:09;;;;;;;21.87;15.40;;;;;;;;;;2074483;28;20856;-57
2021/01/10 05:24:15;;;;;;;20.03;16.50;;;;;;;;;;2075182;28;20173;-53
2021/01/10 05:25:16;;;;;;;21.93;14.97;;;;;;;;;;2074388;28;20614;-55
2021/01/10 05:26:17;;;;;;;24.93;15.87;;;;;;;;;;2076426;28;20201;-54
2021/01/10 05:27:17;;;;;;;24.60;17.43;;;;;;;;;;2072284;28;20219;-57
2021/01/10 05:28:18;;;;;;;25.27;17.37;;;;;;;;;;2079437;28;20716;-55
2021/01/10 05:29:19;;;;;;;20.43;16.30;;;;;;;;;;2073647;28;20198;-54
2021/01/10 05:30:27;;;;;;;21.70;17.13;;;;;;;;;;2078476;28;20169;-54
2021/01/10 05:31:31;;;;;;;24.03;17.67;;;;;;;;;;2072192;28;20188;-52
2021/01/10 05:32:31;;;;;;;24.60;17.13;;;;;;;;;;2076259;28;20181;-54
2021/01/10 05:33:45;;;;;;;27.07;17.40;;;;;;;;;;2067019;28;20221;-55
2021/01/10 05:34:57;;;;;;;28.20;17.93;;;;;;;;;;2077008;28;20764;-56
2021/01/10 05:35:57;;;;;;;25.00;18.03;;;;;;;;;;2075083;28;20172;-53
2021/01/10 05:37:10;;;;;;;28.33;18.80;;;;;;;;;;2075192;28;20449;-54
2021/01/10 05:38:22;;;;;;;25.60;18.47;;;;;;;;;;2076279;28;20168;-54
2021/01/10 05:39:23;;;;;;;26.57;18.47;;;;;;;;;;2072603;28;20196;-53
2021/01/10 05:40:30;;;;;;;24.33;18.03;;;;;;;;;;2070657;28;20452;-52
2021/01/10 05:41:31;;;;;;;23.23;18.40;;;;;;;;;;2076502;28;20185;-57
2021/01/10 05:42:33;;;;;;;27.10;17.57;;;;;;;;;;2077663;28;20200;-57
2021/01/10 05:43:33;;;;;;;22.80;17.27;;;;;;;;;;2075100;28;20184;-55
2021/01/10 05:44:39;;;;;;;21.77;15.83;;;;;;;;;;2075618;28;20448;-54
2021/01/10 05:45:39;;;;;;;26.37;17.60;;;;;;;;;;2076589;28;20207;-51
2021/01/10 05:46:40;;;;;;;24.30;17.20;;;;;;;;;;2072332;28;20186;-55
2021/01/10 05:47:40;;;;;;;26.80;18.70;;;;;;;;;;2077605;28;20245;-54
2021/01/10 05:48:43;;;;;;;23.77;17.37;;;;;;;;;;2076858;28;20185;-56
2021/01/10 05:49:44;;;;;;;24.10;17.90;;;;;;;;;;2078494;28;20255;-58
2021/01/10 05:50:48;;;;;;;30.20;20.77;;;;;;;;;;2075957;28;20617;-55
2021/01/10 05:51:49;;;;;;;26.13;18.03;;;;;;;;;;2074330;28;20785;-57
2021/01/10 05:52:52;;;;;;;26.57;18.33;;;;;;;;;;2077656;28;20455;-54
2021/01/10 05:53:52;;;;;;;22.87;16.57;;;;;;;;;;2078165;28;20176;-54
2021/01/10 05:54:55;;;;;;;20.83;16.97;;;;;;;;;;2077471;28;20223;-52
2021/01/10 05:56:00;;;;;;;21.03;14.97;;;;;;;;;;2074382;28;20196;-55
2021/01/10 05:57:04;;;;;;;21.53;15.73;;;;;;;;;;2069342;28;20192;-59